createdAt,value
2022-11-25T00:11:41.101Z,100818.97
2022-11-25T00:32:24.978Z,100807.50
2022-11-25T00:43:58.848Z,100821.94
2022-11-25T01:00:25.015Z,100834.38
2022-11-25T01:11:29.290Z,100829.31
2022-11-25T01:18:22.353Z,100822.88
2022-11-25T01:33:44.914Z,100817.41
2022-11-25T01:45:24.617Z,100810.41
2022-11-25T02:06:12.917Z,100800.00
2022-11-25T02:17:11.578Z,100787.56
2022-11-25T03:03:45.255Z,100800.47
2022-11-25T03:14:48.532Z,100807.25
2022-11-25T03:30:26.739Z,100827.59
2022-11-25T03:46:04.933Z,100814.56
2022-11-25T03:57:20.324Z,100808.28
2022-11-25T04:04:05.798Z,100810.13
2022-11-25T04:24:10.437Z,100822.44
2022-11-25T04:35:13.447Z,100833.34
2022-11-25T05:04:53.157Z,100844.06
2022-11-25T05:20:34.641Z,100840.47
2022-11-25T05:31:38.390Z,100845.63
2022-11-25T05:38:31.783Z,100850.66
2022-11-25T05:53:53.557Z,100857.72
2022-11-25T06:09:37.402Z,100861.75
2022-11-25T06:42:18.833Z,100852.31
2022-11-25T06:44:46.350Z,100857.59
2022-11-25T06:47:13.529Z,100854.09
2022-11-25T06:49:40.722Z,100857.59
2022-11-25T06:52:08.078Z,100867.19
2022-11-25T08:46:09.412Z,100938.56
2022-11-25T08:48:36.582Z,100935.00
2022-11-25T08:51:08.495Z,100943.69
2022-11-25T08:53:35.766Z,100944.53
2022-11-25T08:56:02.953Z,100941.91
2022-11-25T08:58:30.080Z,100939.25
2022-11-25T09:00:57.222Z,100946.97
2022-11-25T09:03:25.154Z,100946.13
2022-11-25T09:05:54.648Z,100948.69
2022-11-25T09:08:22.011Z,100952.94
2022-11-25T09:10:49.161Z,100945.88
2022-11-25T09:13:16.341Z,100949.19
2022-11-25T09:15:43.631Z,100946.59
2022-11-25T09:18:11.147Z,100950.81
2022-11-25T09:20:39.583Z,100956.00
2022-11-25T09:23:08.125Z,100962.88
2022-11-25T09:25:36.009Z,100958.50
2022-11-25T09:28:04.169Z,100960.13
2022-11-25T09:30:31.802Z,100954.88
2022-11-25T09:32:58.941Z,100950.38
2022-11-25T09:35:26.560Z,100952.06
2022-11-25T09:37:53.684Z,100956.31
2022-11-25T09:40:30.571Z,100951.06
2022-11-25T09:43:34.777Z,100951.22
2022-11-25T09:46:42.268Z,100953.84
2022-11-25T09:49:21.189Z,100955.59
2022-11-25T09:52:15.735Z,100952.34
2022-11-25T09:54:48.551Z,100951.38
2022-11-25T09:57:28.935Z,100948.63
2022-11-25T10:00:11.687Z,100942.34
2022-11-25T10:03:00.323Z,100943.84
2022-11-25T10:05:32.775Z,100939.28
2022-11-25T10:08:12.985Z,100939.06
2022-11-25T10:10:44.961Z,100935.31
2022-11-25T10:13:18.882Z,100936.94
2022-11-25T10:15:49.217Z,100927.91
2022-11-25T10:18:25.479Z,100930.28
2022-11-25T10:20:53.183Z,100936.22
2022-11-25T10:23:28.076Z,100928.22
2022-11-25T10:26:02.166Z,100930.69
2022-11-25T10:28:32.322Z,100939.38
2022-11-25T10:31:22.242Z,100934.03
2022-11-25T10:33:56.784Z,100943.59
2022-11-25T10:36:27.805Z,100942.66
2022-11-25T10:39:10.159Z,100945.13
2022-11-25T10:41:46.485Z,100938.88
2022-11-25T10:44:24.961Z,100938.06
2022-11-25T10:47:24.369Z,100934.50
2022-11-25T10:50:24.774Z,100937.75
2022-11-25T10:53:10.434Z,100932.09
2022-11-25T10:55:37.591Z,100934.47
2022-11-25T10:58:44.692Z,100935.88
2022-11-25T11:01:17.638Z,100941.81
2022-11-25T11:03:46.646Z,100947.91
2022-11-25T11:06:36.616Z,100959.97
2022-11-25T11:09:04.314Z,100959.25
2022-11-25T11:11:31.692Z,100964.41
2022-11-25T11:14:20.838Z,100954.09
2022-11-25T11:16:55.803Z,100954.03
2022-11-25T11:19:28.636Z,100951.31
2022-11-25T11:21:57.266Z,100950.41
2022-11-25T11:24:35.812Z,100942.63
2022-11-25T11:27:21.163Z,100937.38
2022-11-25T11:29:49.041Z,100939.78
2022-11-25T11:32:28.367Z,100934.06
2022-11-25T11:34:59.489Z,100940.03
2022-11-25T11:37:35.370Z,100938.94
2022-11-25T11:40:26.342Z,100946.72
2022-11-25T11:43:24.226Z,100941.47
2022-11-25T11:46:15.110Z,100938.88
2022-11-25T11:49:30.375Z,100931.94
2022-11-25T11:52:11.324Z,100931.72
2022-11-25T11:54:54.119Z,100929.00
2022-11-25T11:57:49.070Z,100931.66
2022-11-25T12:00:22.599Z,100927.78
2022-11-25T12:03:07.958Z,100923.53
2022-11-25T12:05:39.656Z,100925.41
2022-11-25T12:08:13.503Z,100929.25
2022-11-25T12:11:06.530Z,100923.09
2022-11-25T12:13:50.361Z,100925.06
2022-11-25T12:16:42.056Z,100920.03
2022-11-25T12:19:13.002Z,100913.94
2022-11-25T12:22:00.795Z,100918.44
2022-11-25T12:24:37.194Z,100909.00
2022-11-25T12:27:15.163Z,100914.31
2022-11-25T12:29:49.495Z,100917.25
2022-11-25T12:32:35.144Z,100909.44
2022-11-25T12:35:36.852Z,100916.66
2022-11-25T12:38:28.900Z,100918.34
2022-11-25T12:41:24.527Z,100916.34
2022-11-25T12:44:04.791Z,100913.59
2022-11-25T12:46:45.859Z,100914.44
2022-11-25T12:49:21.418Z,100922.63
2022-11-25T12:52:01.510Z,100915.84
2022-11-25T12:54:48.870Z,100919.56
2022-11-25T12:57:47.400Z,100933.50
2022-11-25T13:00:43.170Z,100918.97
2022-11-25T13:03:35.134Z,100917.31
2022-11-25T13:06:23.965Z,100906.91
2022-11-25T13:08:53.669Z,100907.03
2022-11-25T13:11:45.588Z,100915.91
2022-11-25T13:14:40.842Z,100906.78
2022-11-25T13:17:13.705Z,100913.84
2022-11-25T13:19:41.163Z,100917.44
2022-11-25T13:22:20.306Z,100917.38
2022-11-25T13:24:47.609Z,100920.91
2022-11-25T13:27:35.881Z,100930.56
2022-11-25T13:30:04.505Z,100933.19
2022-11-25T13:32:37.111Z,100948.88
2022-11-25T13:35:26.074Z,100943.16
2022-11-25T13:37:53.200Z,100953.72
2022-11-25T13:40:28.521Z,100949.38
2022-11-25T13:42:57.173Z,100954.63
2022-11-25T13:45:30.381Z,100951.16
2022-11-25T13:48:05.150Z,100957.31
2022-11-25T14:08:12.040Z,100956.91
2022-11-25T14:10:51.225Z,100959.47
2022-11-25T14:13:23.960Z,100962.41
2022-11-25T14:16:06.931Z,100964.19
2022-11-25T14:19:54.823Z,100963.16
2022-11-25T14:33:52.716Z,100976.06
2022-11-25T14:36:26.775Z,100973.44
2022-11-25T14:39:00.364Z,100977.09
2022-11-25T14:41:35.585Z,100980.88
2022-11-25T14:44:06.555Z,100979.19
2022-11-25T14:46:33.748Z,100983.50
2022-11-25T14:49:03.204Z,100999.16
2022-11-25T14:51:37.102Z,101004.25
2022-11-25T14:54:07.969Z,100999.94
2022-11-25T14:56:36.587Z,100997.31
2022-11-25T14:59:03.938Z,101005.50
2022-11-25T15:01:33.592Z,100999.34
2022-11-25T15:04:05.654Z,101006.41
2022-11-25T15:06:37.159Z,101010.72
2022-11-25T15:09:20.493Z,101015.09
2022-11-25T15:11:48.171Z,101018.50
2022-11-25T15:14:24.793Z,101016.78
2022-11-25T15:16:52.660Z,101014.16
2022-11-25T15:19:22.655Z,101013.25
2022-11-25T15:22:22.394Z,101023.63
2022-11-25T15:24:53.434Z,101021.03
2022-11-25T15:27:27.880Z,101015.00
2022-11-25T15:29:57.011Z,101019.31
2022-11-25T15:32:33.233Z,101023.63
2022-11-25T15:35:01.503Z,101027.09
2022-11-25T15:37:29.052Z,101026.16
2022-11-25T15:40:33.178Z,101026.09
2022-11-25T15:43:01.942Z,101025.06
2022-11-25T15:45:49.715Z,101019.75
2022-11-25T15:48:23.278Z,101019.75
2022-11-25T15:50:50.457Z,101030.06
2022-11-25T15:53:27.633Z,101019.75
2022-11-25T15:56:00.982Z,101024.13
2022-11-25T15:58:28.208Z,101019.75
2022-11-25T16:01:17.321Z,101021.50
2022-11-25T16:03:45.607Z,101026.75
2022-11-25T16:06:26.652Z,101022.41
2022-11-25T16:09:00.142Z,101021.53
2022-11-25T16:11:33.080Z,101026.78
2022-11-25T16:14:28.755Z,101035.53
2022-11-25T16:17:02.219Z,101033.72
2022-11-25T16:19:38.533Z,101033.72
2022-11-25T16:22:06.260Z,101036.38
2022-11-25T16:24:39.588Z,101033.00
2022-11-25T16:27:17.149Z,101039.06
2022-11-25T16:30:05.578Z,101044.31
2022-11-25T16:32:33.168Z,101045.16
2022-11-25T16:35:12.018Z,101039.06
2022-11-25T16:37:42.737Z,101038.16
2022-11-25T16:40:13.794Z,101040.84
2022-11-25T16:42:41.125Z,101047.84
2022-11-25T16:45:25.564Z,101050.44
2022-11-25T16:47:52.809Z,101043.44
2022-11-25T16:50:20.990Z,101046.91
2022-11-25T16:52:48.185Z,101042.59
2022-11-25T16:55:15.729Z,101043.47
2022-11-25T16:57:43.206Z,101046.09
2022-11-25T17:00:16.773Z,101055.03
2022-11-25T17:02:44.815Z,101052.34
2022-11-25T17:05:19.129Z,101052.34
2022-11-25T17:07:47.046Z,101047.09
2022-11-25T17:10:14.244Z,101057.53
2022-11-25T17:12:42.896Z,101052.34
2022-11-25T17:15:33.494Z,101053.16
2022-11-25T17:18:02.504Z,101057.53
2022-11-25T17:20:29.901Z,101056.00
2022-11-25T17:22:58.158Z,101056.88
2022-11-25T17:25:31.011Z,101058.66
2022-11-25T17:28:01.080Z,101067.41
2022-11-25T17:30:28.646Z,101068.25
2022-11-25T17:33:03.818Z,101070.06
2022-11-25T17:35:31.015Z,101066.50
2022-11-25T17:37:59.743Z,101069.16
2022-11-25T17:40:26.946Z,101072.56
2022-11-25T17:42:54.169Z,101075.19
2022-11-25T17:45:21.862Z,101080.47
2022-11-25T17:47:49.491Z,101083.09
2022-11-25T17:50:25.428Z,101079.53
2022-11-25T17:52:52.815Z,101083.72
2022-11-25T17:55:21.806Z,101081.00
2022-11-25T17:57:49.550Z,101082.72
2022-11-25T18:00:19.666Z,101083.72
2022-11-25T18:02:47.100Z,101091.47
2022-11-25T18:05:23.228Z,101093.16
2022-11-25T18:07:51.026Z,101099.31
2022-11-25T18:10:20.734Z,101104.47
2022-11-25T18:12:50.288Z,101098.38
2022-11-25T18:15:20.771Z,101096.53
2022-11-25T18:17:49.279Z,101101.84
2022-11-25T18:20:18.848Z,101105.38
2022-11-25T18:22:46.586Z,101108.88
2022-11-25T18:25:15.347Z,101107.06
2022-11-25T18:27:43.533Z,101112.41
2022-11-25T18:30:22.062Z,101112.47
2022-11-25T18:32:49.252Z,101109.09
2022-11-25T18:35:17.445Z,101108.22
2022-11-25T18:37:44.806Z,101108.16
2022-11-25T18:40:13.200Z,101115.97
2022-11-25T18:42:40.617Z,101114.16
2022-11-25T18:45:15.891Z,101121.22
2022-11-25T18:47:43.476Z,101123.00
2022-11-25T18:50:21.962Z,101125.63
2022-11-25T18:52:49.362Z,101130.75
2022-11-25T18:55:18.250Z,101134.28
2022-11-25T18:57:48.155Z,101131.78
2022-11-25T19:00:34.585Z,101136.00
2022-11-25T19:03:01.797Z,101141.97
2022-11-25T19:05:31.251Z,101138.47
2022-11-25T19:07:58.619Z,101139.38
2022-11-25T19:10:30.213Z,101149.00
2022-11-25T19:13:00.785Z,101148.16
2022-11-25T19:15:28.077Z,101146.31
2022-11-25T19:18:00.477Z,101149.97
2022-11-25T19:20:28.507Z,101153.38
2022-11-25T19:23:00.550Z,101158.53
2022-11-25T19:25:28.914Z,101160.28
2022-11-25T19:27:58.741Z,101166.31
2022-11-25T19:30:28.192Z,101166.25
2022-11-25T19:32:58.404Z,101163.53
2022-11-25T19:35:33.888Z,101172.22
2022-11-25T19:38:01.115Z,101170.44
2022-11-25T19:40:34.715Z,101178.16
2022-11-25T19:43:04.954Z,101178.28
2022-11-25T19:45:32.420Z,101184.47
2022-11-25T19:48:03.199Z,101185.22
2022-11-25T19:50:30.407Z,101190.47
2022-11-25T19:52:57.485Z,101192.25
2022-11-25T19:55:28.584Z,101198.38
2022-11-25T19:57:56.378Z,101195.63
2022-11-25T20:00:24.550Z,101203.47
2022-11-25T20:02:54.278Z,101199.16
2022-11-25T20:05:30.063Z,101212.16
2022-11-25T20:07:57.017Z,101210.53
2022-11-25T20:10:26.367Z,101213.19
2022-11-25T20:12:55.110Z,101215.78
2022-11-25T20:15:22.915Z,101223.75
2022-11-25T20:17:53.377Z,101224.69
2022-11-25T20:20:26.506Z,101228.16
2022-11-25T20:23:06.659Z,101234.38
2022-11-25T20:25:41.020Z,101236.38
2022-11-25T20:28:37.361Z,101241.66
2022-11-25T20:31:04.584Z,101244.22
2022-11-25T20:33:31.724Z,101244.91
2022-11-25T20:36:05.076Z,101243.97
2022-11-25T20:38:32.995Z,101241.22
2022-11-25T20:41:00.666Z,101246.38
2022-11-25T20:43:38.878Z,101254.19
2022-11-25T20:46:09.439Z,101251.56
2022-11-25T20:48:38.001Z,101257.63
2022-11-25T20:51:10.014Z,101260.13
2022-11-25T20:53:37.422Z,101261.78
2022-11-25T20:56:05.587Z,101264.34
2022-11-25T20:58:32.789Z,101264.25
2022-11-25T21:00:59.982Z,101275.56
2022-11-25T21:03:27.336Z,101268.63
2022-11-25T21:05:55.757Z,101273.81
2022-11-25T21:08:24.935Z,101273.88
2022-11-25T21:10:55.440Z,101274.78
2022-11-25T21:13:24.810Z,101279.19
2022-11-25T21:15:56.663Z,101278.34
2022-11-25T21:18:24.339Z,101283.50
2022-11-25T21:20:53.284Z,101274.72
2022-11-25T21:23:23.408Z,101284.25
2022-11-25T21:25:50.673Z,101283.28
2022-11-25T21:28:20.775Z,101293.81
2022-11-25T21:30:47.967Z,101291.13
2022-11-25T21:33:15.633Z,101298.72
2022-11-25T21:35:45.587Z,101296.03
2022-11-25T21:38:24.029Z,101300.38
2022-11-25T21:40:53.453Z,101289.66
2022-11-25T21:43:24.370Z,101298.53
2022-11-25T21:46:03.876Z,101296.75
2022-11-25T21:48:31.833Z,101301.13
2022-11-25T21:50:59.297Z,101303.00
2022-11-25T21:53:26.702Z,101298.66
2022-11-25T21:55:54.085Z,101310.00
2022-11-25T21:58:28.631Z,101306.50
2022-11-25T22:00:57.809Z,101305.59
2022-11-25T22:03:27.183Z,101307.94
2022-11-25T22:05:54.538Z,101315.75
2022-11-25T22:08:23.219Z,101316.66
2022-11-25T22:10:52.778Z,101320.16
2022-11-25T22:13:22.774Z,101322.00
2022-11-25T22:15:57.641Z,101322.00
2022-11-25T22:18:29.888Z,101328.88
2022-11-25T22:20:57.336Z,101333.38
2022-11-25T22:23:24.531Z,101328.28
2022-11-25T22:25:51.881Z,101337.91
2022-11-25T22:28:24.863Z,101339.69
2022-11-25T22:30:53.948Z,101346.69
2022-11-25T22:33:32.187Z,101343.13
2022-11-25T22:35:59.528Z,101346.75
2022-11-25T22:38:27.853Z,101355.47
2022-11-25T22:41:01.237Z,101357.25
2022-11-25T22:43:32.899Z,101363.31
2022-11-25T22:46:00.157Z,101358.06
2022-11-25T22:48:31.988Z,101364.16
2022-11-25T22:50:59.341Z,101367.56
2022-11-25T22:53:26.804Z,101374.72
2022-11-25T22:55:58.389Z,101370.31
2022-11-25T22:58:26.383Z,101382.47
2022-11-25T23:00:54.796Z,101384.25
2022-11-25T23:03:29.250Z,101384.19
2022-11-25T23:05:56.899Z,101378.72
2022-11-25T23:08:29.030Z,101383.97
2022-11-25T23:10:56.749Z,101385.00
2022-11-25T23:13:24.284Z,101387.63
2022-11-25T23:15:53.820Z,101395.56
2022-11-25T23:18:26.779Z,101394.59
2022-11-25T23:20:54.158Z,101392.84
2022-11-25T23:23:24.183Z,101388.56
2022-11-25T23:25:51.452Z,101391.22
2022-11-25T23:28:18.904Z,101394.69
2022-11-25T23:30:49.946Z,101402.50
2022-11-25T23:33:22.149Z,101411.25
2022-11-25T23:35:49.313Z,101415.59
2022-11-25T23:38:19.153Z,101415.44
2022-11-25T23:40:46.320Z,101417.16
2022-11-25T23:43:14.448Z,101419.81
2022-11-25T23:45:55.901Z,101418.13
2022-11-25T23:48:26.592Z,101416.50
2022-11-25T23:50:55.216Z,101425.13
2022-11-25T23:53:25.522Z,101414.59
2022-11-25T23:55:52.663Z,101411.88
2022-11-25T23:58:21.056Z,101412.63
